Flight Track Log - Related Links

Times and Time Zones

All times are in EDT time to prevent confusion due to time zone crossing. See the SWA902 flight status page for this flight to view local times or setup timezone preferences in your user account.

Time Position Orientation Groundspeed Altitude Reporting Facility
EDT Latitude Longitude Course Direction KTS MPH feet Rate Location/Type
Sun 08:04:49 AM 38.8833 -77.4833 288° West 234 269 3,900  Level Potomac TRACON
Sun 08:06:48 AM 38.8911 -77.6800 273° West 286 329 11,100 3,500 Climbing Washington Center
Sun 08:07:49 AM 38.9081 -77.7872 282° West 320 368 14,400 3,421 Climbing Washington Center
Sun 08:08:49 AM 38.9203 -77.9128 277° West 345 397 18,000 3,277 Climbing Washington Center
Sun 08:09:48 AM 38.9386 -78.0417 280° West 358 412 20,900 3,000 Climbing Washington Center
Sun 08:10:00 AM 38.9326 -78.1636 288° West  Level FlightAware Approximate
Sun 08:10:49 AM 38.9544 -78.1756 279° West 375 432 24,000  Level Washington Center
Sun 08:11:50 AM 38.9639 -78.3147 275° West 385 443 26,400 2,331 Climbing Washington Center
Sun 08:12:50 AM 38.9689 -78.4564 273° West 399 459 28,700 2,288 Climbing Washington Center
Sun 08:13:48 AM 38.9736 -78.6033 272° West 406 467 30,900 1,866 Climbing Washington Center
Sun 08:14:49 AM 38.9761 -78.7506 271° West 412 474 32,400 1,033 Climbing Washington Center
Sun 08:15:50 AM 38.9808 -78.8894 273° West 407 468 33,000 303 Climbing Washington Center
Sun 08:16:48 AM 38.9853 -79.0258 272° West 401 461 33,000  Level Washington Center
Sun 08:17:48 AM 38.9897 -79.1650 272° West 396 456 33,000  Level Washington Center
Sun 08:18:50 AM 38.9917 -79.3039 271° West 396 456 33,000  Level Washington Center
Sun 08:19:50 AM 38.9936 -79.4431 271° West 396 456 33,000 407 Level Washington Center
Sun 08:20:48 AM 38.9967 -79.5981 272° West 396 456 33,800 500 Climbing Washington Center
Sun 08:21:50 AM 39.0006 -79.7292 272° West 401 461 34,000 98 Climbing Washington Center
Sun 08:22:50 AM 39.0039 -79.8789 272° West 393 452 34,000  Level Washington Center
Sun 08:25:18 AM 39.0072 -80.2083 271° West 385 443 34,000  Level Indianapolis Center
Sun 08:26:19 AM 39.0106 -80.3472 272° West 389 448 34,000  Level Indianapolis Center
Sun 08:27:20 AM 39.0389 -80.4806 285° West 400 460 34,000  Level Indianapolis Center
Sun 08:28:21 AM 39.0942 -80.6064 300° West 405 466 34,000  Level Indianapolis Center
Sun 08:29:22 AM 39.1489 -80.7347 299° West 409 471 34,000  Level Indianapolis Center
Sun 08:30:23 AM 39.2072 -80.8636 300° West 416 479 34,000  Level Indianapolis Center
Sun 08:31:25 AM 39.2631 -80.9931 299° West 416 479 34,000  Level Indianapolis Center
Sun 08:32:26 AM 39.3317 -81.1511 299° West 422 486 34,000  Level Indianapolis Center
Sun 08:33:27 AM 39.3892 -81.2819 300° West 421 484 34,000 492 Level Indianapolis Center
Sun 08:34:28 AM 39.4469 -81.4153 299° West 425 489 35,000 1,820 Climbing Indianapolis Center
Sun 08:35:29 AM 39.5019 -81.5444 299° West 414 476 37,700 2,262 Climbing Indianapolis Center
Sun 08:36:30 AM 39.5547 -81.6664 299° West 392 451 39,600 1,131 Climbing Indianapolis Center
Sun 08:37:31 AM 39.6069 -81.7881 299° West 389 448 40,000 197 Climbing Indianapolis Center
Sun 08:38:32 AM 39.6583 -81.9089 299° West 385 443 40,000  Level Indianapolis Center
Sun 08:39:33 AM 39.7094 -82.0328 298° West 388 447 40,000  Level Indianapolis Center
Sun 08:40:34 AM 39.7628 -82.1569 299° West 391 450 40,000  Level Indianapolis Center
Sun 08:41:35 AM 39.8156 -82.2817 299° West 391 450 40,000  Level Indianapolis Center
Sun 08:42:37 AM 39.8761 -82.4292 298° West 393 452 40,000  Level Indianapolis Center
Sun 08:43:38 AM 39.9294 -82.5569 299° West 399 459 40,000  Level Indianapolis Center
Sun 08:44:39 AM 39.9831 -82.6850 299° West 400 460 40,000  Level Indianapolis Center
Sun 08:45:40 AM 40.0378 -82.8156 299° West 406 467 40,000  Level Indianapolis Center
Sun 08:46:41 AM 40.0922 -82.9489 298° West 414 476 40,000  Level Indianapolis Center
Sun 08:47:42 AM 40.1467 -83.0817 298° West 414 476 40,000  Level Indianapolis Center
Sun 08:48:43 AM 40.2006 -83.2147 298° West 415 478 40,000  Level Indianapolis Center
Sun 08:49:44 AM 40.2550 -83.3469 298° West 413 475 40,000  Level Indianapolis Center
Sun 08:50:45 AM 40.3089 -83.4794 298° West 411 473 40,000  Level Indianapolis Center
Sun 08:51:46 AM 40.3611 -83.6117 297° West 408 470 40,000 -344 Level Indianapolis Center
Sun 08:52:47 AM 40.4144 -83.7447 298° West 410 472 39,300 -829 Descending Indianapolis Center
Sun 08:53:49 AM 40.4686 -83.8797 298° West 414 476 38,300 -878 Descending Indianapolis Center
Sun 08:54:50 AM 40.5156 -84.0217 294° West 421 484 37,500 -639 Descending Indianapolis Center
Sun 08:55:51 AM 40.5339 -84.1731 279° West 418 481 37,000 -393 Descending Indianapolis Center
Sun 08:56:52 AM 40.5517 -84.3242 279° West 416 479 36,700 -738 Descending Indianapolis Center
Sun 08:57:53 AM 40.6225 -84.4825 301° West 434 499 35,500 -990 Descending Indianapolis Center
Sun 08:58:29 AM 40.6522 -84.5389 305° West 433 498 35,100 -909 Descending Chicago Center
Sun 08:59:32 AM 40.7342 -84.7011 304° West 441 507 34,000 -1,008 Descending Chicago Center
Sun 09:00:34 AM 40.8039 -84.8344 305° West 442 509 33,000 -927 Descending Chicago Center
Sun 09:01:35 AM 40.8831 -84.9614 310° West 446 513 32,100 -934 Descending Chicago Center
Sun 09:02:36 AM 40.9594 -85.0869 309° West 441 507 31,100 -1,024 Descending Chicago Center
Sun 09:03:38 AM 41.0356 -85.2094 310° West 434 499 30,000 -1,561 Descending Chicago Center
Sun 09:04:39 AM 41.1114 -85.3364 308° West 436 502 27,900 -2,195 Descending Chicago Center
Sun 09:05:41 AM 41.1864 -85.4603 309° West 431 496 25,500 -1,951 Descending Chicago Center
Sun 09:06:42 AM 41.2589 -85.5811 309° West 417 480 23,900 -1,268 Descending Chicago Center
Sun 09:07:44 AM 41.3289 -85.6981 309° West 405 466 22,900 -1,073 Descending Chicago Center
Sun 09:08:45 AM 41.3978 -85.8142 308° West 399 459 21,700 -1,902 Descending Chicago Center
Sun 09:09:47 AM 41.4769 -85.9494 308° West 384 442 19,000 -2,488 Descending Chicago Center
Sun 09:10:48 AM 41.5244 -86.0681 298° West 379 436 16,600 -2,293 Descending Chicago Center
Sun 09:11:50 AM 41.5239 -86.1992 270° West 358 412 14,300 -2,226 Descending Chicago Center
Sun 09:12:52 AM 41.5233 -86.3297 270° West 353 406 12,000 -1,805 Descending Chicago Center
Sun 09:13:53 AM 41.5228 -86.4553 270° West 343 395 10,600 -976 Descending Chicago Center
Sun 09:14:55 AM 41.5208 -86.5736 269° West 326 375 10,000 -293 Descending Chicago Center
Sun 09:15:56 AM 41.5200 -86.6903 269° West 318 366 10,000  Level Chicago Center
Sun 09:16:58 AM 41.5194 -86.8111 270° West 321 369 10,000 -49 Level Chicago Center
Sun 09:17:59 AM 41.5178 -86.9283 269° West 320 368 9,900 -1,024 Descending Chicago Center
Sun 09:19:01 AM 41.5175 -87.0553 270° West 291 335 7,900 -1,806 Descending Chicago Center
Sun 09:19:42 AM 41.5167 -87.1333 269° West 282 325 6,800 -1,129 Descending Chicago TRACON
Sun 09:20:42 AM 41.5167 -87.2333 270° West 271 312 6,000 -400 Descending Chicago TRACON
Sun 09:21:42 AM 41.5167 -87.3333 270° West 275 316 6,000 -200 Level Chicago TRACON
Sun 09:22:42 AM 41.5333 -87.4333 283° West 274 315 5,600 -488 Descending Chicago TRACON
Sun 09:23:08 AM 41.5328 -87.4556 268° West 273 314 5,300 -1,034 Descending Chicago Center
Sun 09:24:09 AM 41.5578 -87.5733 286° West 277 319 4,100 -634 Descending Chicago Center
Sun 09:25:11 AM 41.5661 -87.6739 276° West 277 319 4,000 -259 Descending Chicago Center
Sun 09:27:14 AM 41.6022 -87.8556 285° West 263 303 3,300 -324 Descending Chicago Center
Sun 09:28:16 AM 41.6478 -87.9136 316° Northwest 242 278 3,000 -145 Descending Chicago Center
Sun 09:29:18 AM 41.6894 -87.8733 36° Northeast 208 239 3,000 -439 Level Chicago Center
Sun 09:30:19 AM 41.7275 -87.8256 43° Northeast 176 203 2,100 -780 Descending Chicago Center
Sun 09:31:21 AM 41.7539 -87.7922 43° Northeast 151 174 1,400 -532 Descending Chicago Center
Sun 09:32:23 AM 41.7753 -87.7656 43° Northeast 139 160 1,000 -387 Descending Chicago Center

Login

Don't have an account? Register now (free) for customized features, flight alerts, and more!